Terminal Aerodrome Forecast
Issued by NWS Tulsa, OK

Home | Current Version | Previous Version | Text Only | Print | Product List | Glossary On
Versions: 1 2 3 4 5 6 7 8 9 10 11 12 13 14 15 16 17 18 19
000
FTUS44 KTSA 312300
TAFTUL
TAF
KTUL 312325Z 0100/0124 13006KT P6SM SCT015 BKN080
     FM010600 VRB03KT 4SM BR BKN015
     FM011000 VRB03KT 2SM BR BKN005
     FM011500 08006KT P6SM BKN025
     FM011800 09005KT P6SM SCT030
     FM012200 08006KT P6SM SCT250=

USA.gov is the U.S. government's official web portal to all federal, state and local government web resources and services.